Time;durP1;ratioP1;P1;durP2;ratioP2;P2;SDS_P1;SDS_P2;PMS_P1;PMS_P2;Temp;Humidity;BMP_temperature;BMP_pressure;BME280_temperature;BME280_humidity;BME280_pressure;Samples;Min_cycle;Max_cycle;Signal;HPM_P1;HPM_P2
2023/12/03 00:00:16;;;;;;;20.80;14.55;;;0.20;24.20;;;-1.54;100.00;101056.50;4992486;28;20046;-79
2023/12/03 00:02:43;;;;;;;22.30;15.93;;;0.40;58.60;;;-1.62;100.00;101045.91;4999915;28;20059;-81
2023/12/03 00:05:11;;;;;;;21.27;14.25;;;0.10;76.70;;;-1.78;100.00;101023.81;5008572;28;20042;-79
2023/12/03 00:07:38;;;;;;;19.60;14.63;;;0.60;60.10;;;-1.54;100.00;101061.66;5030402;28;20043;-79
2023/12/03 00:10:07;;;;;;;19.05;14.70;;;1.60;87.00;;;-1.41;100.00;101093.97;5019898;28;20048;-79
2023/12/03 00:12:35;;;;;;;21.35;16.27;;;0.40;99.90;;;-1.52;100.00;101054.84;5011144;28;20038;-79
2023/12/03 00:15:03;;;;;;;21.23;15.27;;;0.00;99.90;;;-1.72;100.00;101035.22;5005847;28;20046;-80
2023/12/03 00:17:30;;;;;;;20.77;14.32;;;0.50;99.90;;;-2.08;100.00;100973.72;5001712;28;20054;-80
2023/12/03 00:19:57;;;;;;;21.60;14.23;;;0.70;99.90;;;-1.61;100.00;101050.25;4997711;28;20104;-81
2023/12/03 00:22:25;;;;;;;21.25;15.02;;;0.10;99.90;;;-1.52;100.00;101052.28;5010784;28;20046;-81
2023/12/03 00:24:52;;;;;;;19.02;14.13;;;0.20;99.90;;;-1.50;100.00;101060.94;5000258;28;20112;-79
2023/12/03 00:27:19;;;;;;;20.65;14.07;;;-0.20;99.90;;;-1.42;100.00;101067.25;4992158;28;20042;-80
2023/12/03 00:29:47;;;;;;;22.95;15.40;;;0.40;99.90;;;-1.40;100.00;101068.22;4997047;28;20053;-80
2023/12/03 00:32:14;;;;;;;21.02;15.35;;;0.70;99.90;;;-1.51;100.00;101060.06;4976498;28;20043;-81
2023/12/03 00:34:41;;;;;;;22.83;17.40;;;0.50;99.90;;;-1.45;100.00;101056.81;4990064;28;20035;-80
2023/12/03 00:37:08;;;;;;;21.67;15.73;;;0.40;99.90;;;-1.59;100.00;101046.00;5013909;28;20088;-78
2023/12/03 00:39:36;;;;;;;23.77;15.65;;;0.20;99.90;;;-1.41;100.00;101075.91;5006249;28;20507;-80
2023/12/03 00:42:03;;;;;;;20.98;16.35;;;0.30;99.90;;;-1.42;100.00;101067.25;5007813;28;20563;-80
2023/12/03 00:44:30;;;;;;;21.20;15.88;;;0.40;99.90;;;-1.88;100.00;101001.94;5006441;28;20120;-79
2023/12/03 00:46:57;;;;;;;23.40;16.17;;;0.40;99.90;;;-1.34;100.00;101090.78;4990929;28;20165;-80
2023/12/03 00:49:24;;;;;;;20.98;15.93;;;0.60;99.90;;;-1.41;100.00;101070.72;5007469;28;20077;-78
2023/12/03 00:51:51;;;;;;;23.02;16.80;;;1.20;99.90;;;-1.46;100.00;101068.88;4999921;28;20061;-79
2023/12/03 00:54:19;;;;;;;23.63;16.58;;;1.60;99.90;;;-1.43;100.00;101063.81;4990827;28;20047;-79
2023/12/03 00:56:46;;;;;;;25.17;17.02;;;0.50;99.90;;;-1.49;100.00;101062.72;4991839;28;20418;-80
2023/12/03 00:59:13;;;;;;;28.30;18.48;;;0.70;99.90;;;-1.47;100.00;101069.69;4997576;28;20042;-79
2023/12/03 01:01:40;;;;;;;26.73;17.90;;;0.30;99.90;;;-1.40;100.00;101104.38;5010743;28;20057;-79
2023/12/03 01:04:07;;;;;;;27.55;17.20;;;0.40;99.90;;;-1.71;100.00;101049.88;5004352;28;20461;-78
2023/12/03 01:06:34;;;;;;;22.55;16.35;;;-0.10;99.90;;;-1.93;100.00;101021.53;4989065;28;20057;-80
2023/12/03 01:09:01;;;;;;;24.00;17.42;;;0.30;99.90;;;-1.55;100.00;101088.31;5006276;28;20074;-79
2023/12/03 01:11:28;;;;;;;25.35;17.50;;;1.90;99.90;;;-1.66;100.00;101064.66;5007104;28;20380;-80
2023/12/03 01:14:03;;;;;;;27.85;17.95;;;0.20;99.90;;;-1.63;100.00;101078.56;5005856;28;20736;-80
2023/12/03 01:16:31;;;;;;;26.15;18.05;;;0.30;99.90;;;-1.93;100.00;101024.97;5007298;28;20520;-80
2023/12/03 01:18:58;;;;;;;25.48;17.83;;;0.80;99.90;;;-1.72;100.00;101078.19;5006714;28;20092;-81
2023/12/03 01:21:25;;;;;;;26.40;18.50;;;0.70;99.90;;;-1.37;100.00;101116.47;4990288;28;20046;-78
2023/12/03 01:23:53;;;;;;;28.77;21.15;;;0.00;99.90;;;-1.44;100.00;101116.28;4986500;28;20082;-81
2023/12/03 01:26:20;;;;;;;27.92;19.08;;;0.40;99.90;;;-1.92;100.00;101049.09;5002864;28;20070;-79
2023/12/03 01:28:47;;;;;;;28.40;19.20;;;0.50;99.90;;;-1.61;100.00;101086.38;4991059;28;20109;-81
2023/12/03 01:31:14;;;;;;;28.42;19.55;;;0.20;99.90;;;-1.72;100.00;101078.19;5008829;28;20498;-80
2023/12/03 01:33:41;;;;;;;29.58;18.95;;;0.00;99.90;;;-1.46;100.00;101143.72;4983525;28;20073;-80
2023/12/03 01:36:08;;;;;;;30.73;18.77;;;0.50;99.90;;;-1.77;100.00;101074.59;4996019;28;20835;-81
2023/12/03 01:38:36;;;;;;;28.80;19.48;;;0.50;99.90;;;-1.46;100.00;101127.34;4992990;28;20050;-81
2023/12/03 01:41:03;;;;;;;28.80;19.52;;;2.30;1.00;;;-1.46;100.00;101124.78;4990876;28;20050;-81
2023/12/03 01:43:30;;;;;;;28.95;18.38;;;0.00;1.00;;;-2.19;100.00;101022.28;4973429;28;20042;-79
2023/12/03 01:45:57;;;;;;;31.40;18.88;;;0.10;99.90;;;-1.61;100.00;101114.75;5005596;28;20046;-81
2023/12/03 01:48:25;;;;;;;26.85;18.80;;;-0.30;99.90;;;-1.59;100.00;101132.03;4990316;28;20160;-79
2023/12/03 01:50:55;;;;;;;27.65;19.15;;;-0.30;99.90;;;-1.67;100.00;101119.66;4989936;28;20469;-80
2023/12/03 01:53:22;;;;;;;28.52;18.10;;;0.60;99.90;;;-1.66;100.00;101116.25;4989763;28;20113;-80
2023/12/03 01:55:50;;;;;;;30.35;19.35;;;0.80;99.90;;;-1.52;100.00;101138.31;4989920;28;20434;-81
2023/12/03 01:58:17;;;;;;;25.92;17.85;;;-0.20;99.90;;;-1.78;100.00;101099.53;4989901;28;20093;-81
2023/12/03 02:00:44;;;;;;;30.42;19.35;;;0.30;99.90;;;-1.51;100.00;101158.16;4988144;28;20098;-79
2023/12/03 02:03:16;;;;;;;29.73;19.50;;;0.30;99.90;;;-1.61;100.00;101123.38;4988935;28;20123;-80
2023/12/03 02:05:53;;;;;;;31.92;19.98;;;0.40;99.90;;;-1.85;100.00;101112.97;5004687;28;20038;-80
2023/12/03 02:08:20;;;;;;;31.27;20.27;;;0.00;99.90;;;-1.81;100.00;101101.97;5006498;28;20054;-80
2023/12/03 02:10:47;;;;;;;28.35;19.52;;;0.10;99.90;;;-1.84;100.00;101091.53;4989782;28;20112;-81
2023/12/03 02:13:15;;;;;;;28.63;18.90;;;-0.10;99.90;;;-1.68;100.00;101123.97;5010182;28;20042;-80
2023/12/03 02:15:42;;;;;;;30.10;20.30;;;0.20;99.90;;;-1.78;100.00;101108.94;4988545;28;20100;-81
2023/12/03 02:18:10;;;;;;;26.85;17.58;;;0.60;99.90;;;-1.58;100.00;101153.59;5005514;28;20121;-81
2023/12/03 02:20:37;;;;;;;29.15;19.65;;;0.20;99.90;;;-1.62;100.00;101152.56;4988036;28;20140;-81
2023/12/03 02:23:04;;;;;;;34.20;20.17;;;0.20;99.90;;;-2.30;100.00;101063.13;4988808;28;20157;-81
2023/12/03 02:25:31;;;;;;;30.10;20.08;;;1.20;99.90;;;-1.91;100.00;101130.81;4961908;28;20054;-80
2023/12/03 02:27:58;;;;;;;29.13;20.50;;;-0.50;99.90;;;-1.72;100.00;101155.63;4996366;28;20066;-80
2023/12/03 02:30:25;;;;;;;26.17;18.02;;;-0.10;1.00;;;-2.21;100.00;101067.75;5005604;28;20046;-80
2023/12/03 02:32:52;;;;;;;32.42;21.60;;;-0.20;1.00;;;-2.34;100.00;101060.34;5005945;28;20048;-80
2023/12/03 02:35:19;;;;;;;28.90;19.23;;;-0.20;99.90;;;-1.64;100.00;101154.22;4987525;28;20050;-78
2023/12/03 02:37:46;;;;;;;31.58;19.88;;;0.00;99.90;;;-1.67;100.00;101150.63;4988434;28;20133;-80
2023/12/03 02:40:13;;;;;;;32.70;22.17;;;0.30;99.90;;;-1.71;100.00;101134.19;4988244;28;20054;-79
2023/12/03 02:42:41;;;;;;;32.67;21.60;;;0.50;99.90;;;-2.30;100.00;101052.81;4996685;28;20074;-81
2023/12/03 02:45:09;;;;;;;29.10;20.00;;;1.80;99.90;;;-1.72;100.00;101163.34;4971742;28;20756;-80
2023/12/03 02:47:36;;;;;;;33.13;19.85;;;0.40;99.90;;;-1.68;100.00;101162.69;5004977;28;20097;-81
2023/12/03 02:50:04;;;;;;;31.98;20.73;;;-0.40;1.00;;;-1.72;100.00;101148.78;4989198;28;20085;-80
2023/12/03 02:52:31;;;;;;;31.63;20.50;;;0.10;99.90;;;-1.94;100.00;101121.25;4989026;28;20755;-79
2023/12/03 02:54:59;;;;;;;29.95;19.80;;;0.10;1.00;;;-1.64;100.00;101172.28;4988621;28;20042;-81
2023/12/03 02:57:26;;;;;;;29.92;20.08;;;-0.30;1.00;;;-1.72;100.00;101166.84;5005442;28;20152;-81
2023/12/03 02:59:53;;;;;;;32.60;20.75;;;1.30;1.00;;;-2.02;100.00;101110.63;4992967;28;20045;-80
2023/12/03 03:02:20;;;;;;;27.90;19.27;;;-0.30;1.20;;;-1.72;100.00;101164.25;4977256;28;20113;-80
2023/12/03 03:04:47;;;;;;;30.60;20.45;;;0.50;1.00;;;-1.82;100.00;101140.63;4962440;28;21171;-82
2023/12/03 03:07:14;;;;;;;29.42;19.58;;;-0.20;1.00;;;-1.74;100.00;101165.00;4989779;28;20054;-81
2023/12/03 03:09:41;;;;;;;28.75;20.08;;;0.30;21.70;;;-1.61;100.00;101179.28;4988371;28;20054;-81
2023/12/03 03:12:08;;;;;;;29.25;20.67;;;0.40;28.90;;;-1.82;100.00;101145.78;4988363;28;20050;-80
2023/12/03 03:14:35;;;;;;;27.88;19.75;;;0.20;1.00;;;-1.83;100.00;101144.03;4964009;28;20050;-80
2023/12/03 03:17:02;;;;;;;30.40;20.33;;;-0.20;1.00;;;-1.98;100.00;101127.13;4990959;28;20056;-81
2023/12/03 03:19:29;;;;;;;29.48;20.80;;;0.20;1.00;;;-1.78;100.00;101173.44;4983077;28;20107;-81
2023/12/03 03:21:56;;;;;;;30.92;20.98;;;-0.30;1.00;;;-1.94;100.00;101139.31;4987807;28;20050;-80
2023/12/03 03:24:23;;;;;;;31.17;18.95;;;0.20;1.00;;;-2.12;100.00;101123.97;4980513;28;20057;-80
2023/12/03 03:26:50;;;;;;;34.13;20.77;;;-0.10;1.00;;;-1.78;100.00;101169.19;4971756;28;20529;-80
2023/12/03 03:29:17;;;;;;;33.70;21.55;;;-0.40;1.00;;;-2.57;100.00;101070.63;4987892;28;20058;-80
2023/12/03 03:31:45;;;;;;;29.23;19.73;;;-0.30;1.00;;;-1.78;100.00;101176.94;4987526;28;20638;-80
2023/12/03 03:34:12;;;;;;;31.13;21.60;;;-0.50;1.00;;;-2.09;100.00;101138.69;4996644;28;20065;-81
2023/12/03 03:36:39;;;;;;;30.48;20.70;;;-0.60;1.00;;;-1.89;100.00;101180.75;4973294;28;20050;-81
2023/12/03 03:39:06;;;;;;;28.77;19.88;;;-0.10;81.70;;;-2.00;100.00;101178.63;4991573;28;20050;-79
2023/12/03 03:41:33;;;;;;;31.08;21.23;;;-0.20;99.90;;;-2.03;100.00;101190.50;4996016;28;20141;-79
2023/12/03 03:44:00;;;;;;;30.23;20.85;;;0.90;99.90;;;-2.48;100.00;101111.34;4990346;28;20150;-81
2023/12/03 03:46:27;;;;;;;35.40;21.00;;;1.00;99.90;;;-2.25;100.00;101166.44;4999430;28;20416;-80
2023/12/03 03:48:54;;;;;;;31.40;20.33;;;0.60;99.90;;;-2.09;100.00;101203.16;4975251;28;20046;-80
2023/12/03 03:51:21;;;;;;;33.80;21.88;;;0.00;99.90;;;-2.54;100.00;101142.91;5014881;28;20073;-79
2023/12/03 03:53:48;;;;;;;33.63;22.45;;;-0.90;1.00;;;-2.43;100.00;101164.84;4993151;28;20050;-81
2023/12/03 03:56:16;;;;;;;36.22;23.02;;;-0.70;1.00;;;-3.01;100.00;101066.25;4996452;28;20047;-79
2023/12/03 03:58:43;;;;;;;33.28;20.58;;;0.10;91.00;;;-2.31;100.00;101197.13;4990550;28;20050;-80
2023/12/03 04:01:10;;;;;;;35.40;21.27;;;-0.70;46.30;;;-2.30;100.00;101199.75;4990318;28;20400;-82
2023/12/03 04:03:37;;;;;;;34.95;22.23;;;0.30;99.90;;;-2.41;100.00;101188.13;4990167;28;20054;-81
2023/12/03 04:06:05;;;;;;;34.50;21.77;;;-1.10;1.00;;;-2.36;100.00;101222.72;4990678;28;20088;-81
2023/12/03 04:08:33;;;;;;;35.25;21.05;;;0.00;1.00;;;-2.37;100.00;101210.63;4988533;28;20046;-80
2023/12/03 04:11:04;;;;;;;36.83;22.77;;;2.10;99.90;;;-2.30;100.00;101219.50;5006663;28;20157;-80
2023/12/03 04:13:36;;;;;;;33.80;20.65;;;-1.50;99.90;;;-2.53;100.00;101198.78;5006398;28;20141;-78
2023/12/03 04:16:03;;;;;;;33.08;20.75;;;-0.60;99.90;;;-2.63;100.00;101183.75;4980599;28;20057;-80
2023/12/03 04:18:30;;;;;;;37.58;23.98;;;0.00;99.90;;;-2.69;100.00;101180.91;4989720;28;20065;-81
2023/12/03 04:20:58;;;;;;;34.88;22.77;;;-0.90;1.00;;;-2.48;100.00;101211.88;4998551;28;20046;-78
2023/12/03 04:23:25;;;;;;;34.63;23.40;;;-1.10;99.90;;;-2.97;100.00;101123.91;5003019;28;20082;-80
2023/12/03 04:25:51;;;;;;;44.15;28.63;;;-0.60;99.90;;;-2.52;100.00;101200.53;5006025;28;20054;-79
2023/12/03 04:28:18;;;;;;;35.72;23.27;;;-0.90;1.00;;;-2.48;100.00;101214.44;4990063;28;20054;-80
2023/12/03 04:30:45;;;;;;;44.22;25.35;;;0.20;1.00;;;-3.03;100.00;101139.97;5006021;28;20381;-80
2023/12/03 04:33:13;;;;;;;39.78;24.25;;;0.10;17.90;;;-2.60;100.00;101201.91;4977169;28;20134;-81
2023/12/03 04:35:40;;;;;;;109.53;52.15;;;-1.20;41.90;;;-2.54;100.00;101221.91;4989307;28;20049;-79
2023/12/03 04:38:07;;;;;;;51.97;31.35;;;-0.30;64.20;;;-3.47;100.00;101089.97;4990377;28;20097;-80
2023/12/03 04:40:34;;;;;;;36.63;23.33;;;-0.70;1.00;;;-2.67;100.00;101202.44;5006649;28;20062;-81
2023/12/03 04:43:01;;;;;;;46.70;27.45;;;-1.10;99.90;;;-2.63;100.00;101231.00;4990494;28;20117;-79
2023/12/03 04:45:28;;;;;;;36.63;22.20;;;-0.90;99.90;;;-2.65;100.00;101237.78;5001239;28;20191;-79
2023/12/03 04:47:55;;;;;;;37.47;22.42;;;0.70;99.90;;;-2.79;100.00;101225.97;4979977;28;20042;-80
2023/12/03 04:50:22;;;;;;;33.50;21.33;;;-0.90;99.90;;;-2.89;100.00;101210.13;4994665;28;20084;-80
2023/12/03 04:52:49;;;;;;;36.80;22.83;;;0.00;99.90;;;-2.77;100.00;101224.34;4990546;28;20130;-81
2023/12/03 04:55:16;;;;;;;36.55;22.30;;;-1.20;99.90;;;-2.67;100.00;101241.09;5005326;28;20057;-80
2023/12/03 04:57:43;;;;;;;35.95;23.40;;;-0.60;99.90;;;-2.94;100.00;101215.91;5014260;28;20050;-79
2023/12/03 05:00:11;;;;;;;30.77;20.35;;;-1.00;99.90;;;-2.82;100.00;101223.28;4989524;28;20293;-80
2023/12/03 05:02:38;;;;;;;34.22;21.42;;;-1.20;99.90;;;-2.77;100.00;101229.50;4989171;28;20121;-79
2023/12/03 05:05:05;;;;;;;33.38;20.95;;;-1.30;26.60;;;-2.83;100.00;101218.94;4990011;28;20051;-79
2023/12/03 05:07:32;;;;;;;33.75;21.38;;;-1.10;99.90;;;-2.83;100.00;101218.94;5014277;28;20038;-79
2023/12/03 05:09:59;;;;;;;36.08;21.35;;;-0.40;1.00;;;-2.97;100.00;101200.28;4993683;28;20038;-81
2023/12/03 05:12:26;;;;;;;38.70;21.27;;;-1.30;15.80;;;-2.91;100.00;101214.31;4994524;28;20042;-80
2023/12/03 05:14:54;;;;;;;35.35;21.95;;;-0.70;99.90;;;-3.29;100.00;101143.97;5001206;28;20042;-80
2023/12/03 05:17:21;;;;;;;32.92;21.20;;;-0.60;57.30;;;-2.83;100.00;101232.69;5003711;28;20060;-81
2023/12/03 05:19:48;;;;;;;34.58;20.42;;;1.40;56.30;;;-2.85;100.00;101226.59;4990458;28;20084;-80
2023/12/03 05:22:15;;;;;;;32.22;20.02;;;-1.90;99.90;;;-3.10;100.00;101192.03;4991596;28;20457;-80
2023/12/03 05:24:42;;;;;;;32.70;20.48;;;-1.20;99.90;;;-3.06;100.00;101206.78;4992015;28;20136;-81
2023/12/03 05:27:09;;;;;;;31.33;21.35;;;-1.50;99.90;;;-3.19;100.00;101187.34;5012214;28;20054;-79
2023/12/03 05:29:43;;;;;;;31.73;19.50;;;-1.40;46.40;;;-3.40;100.00;101171.81;5011656;28;20113;-80
2023/12/03 05:32:10;;;;;;;29.58;18.65;;;0.30;99.90;;;-3.48;100.00;101150.88;5003821;28;20050;-80
2023/12/03 05:34:37;;;;;;;31.45;18.77;;;-0.70;99.90;;;-3.50;100.00;101143.88;5014988;28;20089;-79
2023/12/03 05:37:04;;;;;;;28.73;19.52;;;-1.20;99.90;;;-2.97;100.00;101220.88;4999408;28;20046;-79
2023/12/03 05:39:31;;;;;;;31.67;20.98;;;-1.10;99.90;;;-2.89;100.00;101240.16;4984382;28;20501;-79
2023/12/03 05:41:58;;;;;;;28.55;19.00;;;0.70;99.90;;;-3.08;100.00;101215.25;4990367;28;20054;-78
2023/12/03 05:44:25;;;;;;;27.58;19.25;;;-1.30;99.90;;;-2.85;100.00;101257.50;5005674;28;20564;-78
2023/12/03 05:46:52;;;;;;;27.70;18.55;;;-0.30;99.90;;;-3.11;100.00;101212.53;4992465;28;20424;-78
2023/12/03 05:49:19;;;;;;;32.00;19.80;;;-0.90;99.90;;;-3.00;100.00;101232.81;4989841;28;20411;-78
2023/12/03 05:51:47;;;;;;;25.63;17.98;;;-1.20;99.90;;;-2.65;100.00;101284.16;4989897;28;20042;-80
2023/12/03 05:54:15;;;;;;;30.88;20.10;;;-1.20;99.90;;;-2.81;100.00;101256.84;5005927;28;20038;-80
2023/12/03 05:56:44;;;;;;;34.33;25.70;;;-0.60;78.90;;;-2.76;100.00;101265.66;5015027;28;20737;-79
2023/12/03 05:59:14;;;;;;;29.65;22.73;;;-1.10;67.30;;;-2.79;100.00;101264.63;4999286;28;20135;-78
2023/12/03 06:01:41;;;;;;;31.10;20.10;;;-0.60;99.90;;;-2.85;100.00;101267.81;5003719;28;20280;-80
2023/12/03 06:04:10;;;;;;;28.33;19.00;;;-1.20;1.00;;;-2.76;100.00;101283.69;4996083;28;20046;-80
2023/12/03 06:06:38;;;;;;;30.55;18.63;;;-0.40;1.00;;;-3.08;100.00;101222.97;5011734;28;20293;-81
2023/12/03 06:09:06;;;;;;;30.80;20.20;;;-0.30;1.00;;;-2.85;100.00;101268.69;5007360;28;20046;-79
2023/12/03 06:11:33;;;;;;;35.22;22.30;;;-0.80;99.90;;;-2.70;100.00;101280.50;4991463;28;20048;-80
2023/12/03 06:14:00;;;;;;;31.75;21.10;;;-0.90;1.00;;;-2.82;100.00;101274.78;4991872;28;20042;-80
2023/12/03 06:16:27;;;;;;;31.23;21.85;;;-0.70;99.90;;;-2.70;100.00;101301.13;4986917;28;20046;-79
2023/12/03 06:18:55;;;;;;;34.72;22.65;;;-0.90;99.90;;;-2.97;100.00;101247.53;4991865;28;20132;-81
2023/12/03 06:21:24;;;;;;;27.92;18.58;;;-1.20;1.00;;;-2.89;100.00;101277.09;4979875;28;20081;-81
2023/12/03 06:23:53;;;;;;;31.13;18.98;;;-1.00;1.00;;;-3.15;100.00;101238.16;4991397;28;20077;-80
2023/12/03 06:26:20;;;;;;;27.60;19.55;;;-1.50;1.00;;;-2.80;100.00;101292.09;5008537;28;20149;-81
2023/12/03 06:28:48;;;;;;;33.45;20.67;;;-0.40;1.00;;;-3.71;100.00;101167.81;5006359;28;20457;-81
2023/12/03 06:31:15;;;;;;;34.40;23.17;;;-1.10;1.00;;;-3.29;100.00;101239.22;4991417;28;20050;-81
2023/12/03 06:33:46;;;;;;;32.58;21.58;;;-1.40;99.90;;;-3.00;100.00;101276.59;4989969;28;20042;-81
2023/12/03 06:36:14;;;;;;;30.38;20.38;;;-1.10;99.90;;;-3.38;100.00;101226.78;5007626;28;20046;-80
2023/12/03 06:38:41;;;;;;;28.85;19.58;;;0.00;1.00;;;-2.96;100.00;101297.34;4992913;28;20050;-79
2023/12/03 06:41:08;;;;;;;35.25;21.45;;;-0.60;99.90;;;-3.15;100.00;101258.75;5009326;28;20590;-79
2023/12/03 06:43:35;;;;;;;33.90;22.38;;;0.70;1.00;;;-3.21;100.00;101257.59;4994986;28;20119;-79
2023/12/03 06:46:02;;;;;;;29.27;18.85;;;-0.80;99.90;;;-3.07;100.00;101287.44;4996762;28;20093;-77
2023/12/03 06:48:29;;;;;;;34.38;21.55;;;-1.00;99.90;;;-3.07;100.00;101290.00;5014533;28;20073;-79
2023/12/03 06:50:59;;;;;;;34.17;22.23;;;-1.20;1.00;;;-3.04;100.00;101297.00;5006269;28;20039;-80
2023/12/03 06:53:26;;;;;;;36.47;22.90;;;-1.30;1.00;;;-3.16;100.00;101279.25;4985888;28;20042;-79
2023/12/03 06:55:53;;;;;;;36.08;22.33;;;-1.20;93.80;;;-3.31;100.00;101264.00;5004940;28;20049;-79
2023/12/03 06:58:20;;;;;;;37.65;22.40;;;-1.30;9.70;;;-3.15;100.00;101294.78;4989669;28;20129;-80
2023/12/03 07:00:50;;;;;;;37.20;25.38;;;-1.00;99.90;;;-3.23;100.00;101290.09;4988724;28;20141;-79
2023/12/03 07:03:17;;;;;;;33.58;22.98;;;-1.10;99.90;;;-3.22;100.00;101286.72;4985697;28;20453;-77
2023/12/03 07:05:44;;;;;;;35.28;23.08;;;-1.30;1.00;;;-3.06;100.00;101314.94;4987649;28;20050;-78
2023/12/03 07:08:11;;;;;;;40.45;27.20;;;-1.50;99.90;;;-3.06;100.00;101327.81;4990357;28;20481;-78
2023/12/03 07:10:38;;;;;;;38.80;25.25;;;-1.40;99.90;;;-3.16;100.00;101308.47;5008991;28;20042;-79
2023/12/03 07:13:05;;;;;;;34.85;22.20;;;-1.60;86.90;;;-3.29;100.00;101294.13;4996078;28;20046;-79
2023/12/03 07:15:32;;;;;;;171.98;73.20;;;-1.30;1.00;;;-3.23;100.00;101305.53;4973917;28;20046;-79
2023/12/03 07:17:59;;;;;;;422.38;147.38;;;-1.60;99.90;;;-3.28;100.00;101301.06;4993834;28;22702;-81
2023/12/03 07:20:26;;;;;;;294.88;97.47;;;-1.90;1.00;;;-3.28;100.00;101302.75;4982483;28;20100;-80
2023/12/03 07:22:55;;;;;;;532.47;161.02;;;-1.40;99.90;;;-3.19;100.00;101322.91;4996246;28;20412;-79
2023/12/03 07:25:22;;;;;;;609.72;204.82;;;-1.40;99.90;;;-3.26;100.00;101314.00;4994284;28;20050;-79
2023/12/03 07:27:49;;;;;;;153.60;51.25;;;-1.90;99.90;;;-3.22;100.00;101335.63;4977127;28;20148;-79
2023/12/03 07:30:17;;;;;;;57.30;32.20;;;-1.60;94.00;;;-3.46;100.00;101302.75;5009118;28;20390;-80
2023/12/03 07:32:44;;;;;;;45.55;27.55;;;-1.80;88.50;;;-3.38;100.00;101332.31;4997942;28;20046;-79
2023/12/03 07:35:11;;;;;;;46.03;26.48;;;-0.70;99.90;;;-3.54;100.00;101309.22;4998090;28;20060;-83
2023/12/03 07:37:40;;;;;;;36.80;23.63;;;-1.50;44.00;;;-3.80;100.00;101283.97;4990489;28;20086;-81
2023/12/03 07:40:09;;;;;;;39.38;25.08;;;-2.20;32.40;;;-3.55;100.00;101323.75;4991499;28;20046;-78
2023/12/03 07:42:36;;;;;;;34.13;21.73;;;-1.70;88.10;;;-3.44;100.00;101339.72;5006972;28;20082;-78
2023/12/03 07:45:03;;;;;;;39.05;25.88;;;-1.40;99.90;;;-3.46;100.00;101339.66;4990706;28;20092;-77
2023/12/03 07:47:34;;;;;;;38.10;26.05;;;-1.00;99.90;;;-3.39;100.00;101371.72;5007662;28;20046;-78
2023/12/03 07:50:01;;;;;;;39.00;23.48;;;-1.50;18.30;;;-3.39;100.00;101335.69;4988659;28;20794;-78
2023/12/03 07:52:28;;;;;;;40.97;28.65;;;-1.60;12.30;;;-3.60;100.00;101310.66;5003613;28;20370;-78
2023/12/03 07:54:55;;;;;;;38.75;27.13;;;-2.00;99.90;;;-3.46;100.00;101331.94;5006663;28;20074;-78
2023/12/03 07:57:22;;;;;;;39.13;31.00;;;-0.90;99.90;;;-3.55;100.00;101323.75;4991532;28;20145;-78
2023/12/03 07:59:49;;;;;;;41.40;26.13;;;-2.40;1.00;;;-3.48;100.00;101350.69;5007395;28;20053;-78
2023/12/03 08:02:19;;;;;;;34.20;23.90;;;-2.50;1.00;;;-3.44;100.00;101363.78;5007902;28;20447;-78
2023/12/03 08:04:46;;;;;;;37.53;24.65;;;-0.90;1.00;;;-3.71;100.00;101312.72;4991028;28;20504;-78
2023/12/03 08:07:15;;;;;;;33.70;23.35;;;-0.50;1.00;;;-3.50;100.00;101339.44;4991495;28;20135;-78
2023/12/03 08:09:42;;;;;;;37.42;26.63;;;-1.40;1.00;;;-3.49;100.00;101333.47;4999259;28;20062;-78
2023/12/03 08:12:09;;;;;;;34.20;22.85;;;-2.10;1.00;;;-3.35;100.00;101362.47;4990834;28;20122;-77
2023/12/03 08:14:36;;;;;;;37.95;26.00;;;-1.20;1.00;;;-3.32;100.00;101368.63;4990523;28;20044;-78
2023/12/03 08:17:03;;;;;;;47.15;32.35;;;-1.30;1.00;;;-3.22;100.00;101381.97;5007245;28;20046;-78
2023/12/03 08:19:30;;;;;;;39.95;25.48;;;-1.50;1.00;;;-3.30;100.00;101368.72;5005089;28;20054;-78
2023/12/03 08:21:58;;;;;;;38.40;22.50;;;-0.80;1.00;;;-3.19;100.00;101389.81;4991102;28;20838;-78
2023/12/03 08:24:25;;;;;;;39.00;23.65;;;-1.00;1.00;;;-3.18;100.00;101381.28;4990608;28;20042;-78
2023/12/03 08:26:52;;;;;;;35.65;22.90;;;-1.00;1.00;;;-3.16;100.00;101375.41;5007628;28;20050;-78
2023/12/03 08:29:22;;;;;;;36.25;24.42;;;-1.30;1.00;;;-3.22;100.00;101366.53;5004761;28;20138;-78
2023/12/03 08:31:49;;;;;;;52.58;35.47;;;-1.60;29.00;;;-3.29;100.00;101360.19;5007162;28;20046;-78
2023/12/03 08:34:17;;;;;;;37.40;25.48;;;-1.50;1.00;;;-3.22;100.00;101372.53;4990885;28;20070;-78
2023/12/03 08:36:44;;;;;;;34.28;21.90;;;-2.00;11.90;;;-3.15;100.00;101366.88;4992529;28;20196;-78
2023/12/03 08:39:12;;;;;;;35.30;24.58;;;-1.10;15.70;;;-3.09;100.00;101365.41;5009334;28;20053;-76
2023/12/03 08:41:39;;;;;;;157.70;77.55;;;-0.40;1.00;;;-3.25;100.00;101332.91;4991604;28;20563;-77
2023/12/03 08:44:06;;;;;;;52.42;32.38;;;-1.10;1.00;;;-2.95;100.00;101374.69;5001841;28;20883;-76
2023/12/03 08:46:33;;;;;;;81.35;46.58;;;-1.10;1.00;;;-3.16;100.00;101346.19;4986979;28;20542;-76
2023/12/03 08:49:00;;;;;;;51.33;33.40;;;-0.40;1.00;;;-2.94;100.00;101365.28;4981155;28;20077;-76
2023/12/03 08:51:27;;;;;;;52.58;33.78;;;-1.40;1.00;;;-3.00;100.00;101353.84;5005420;28;20047;-76
2023/12/03 08:53:58;;;;;;;84.55;51.90;;;-1.70;1.00;;;-2.95;100.00;101351.50;4972666;28;20061;-76
2023/12/03 08:56:25;;;;;;;38.92;25.92;;;-0.30;1.00;;;-3.00;100.00;101335.81;4997534;28;20066;-76
2023/12/03 08:58:53;;;;;;;51.45;35.53;;;-0.90;1.00;;;-2.82;100.00;101362.38;4988731;28;20559;-76
2023/12/03 09:01:20;;;;;;;48.85;29.42;;;-0.50;1.00;;;-2.89;100.00;101350.91;5004953;28;20046;-77
2023/12/03 09:03:48;;;;;;;49.03;33.42;;;-0.50;1.00;;;-2.83;100.00;101346.03;4988779;28;20378;-76
2023/12/03 09:06:17;;;;;;;34.55;23.55;;;-0.90;1.00;;;-2.73;100.00;101355.09;5004671;28;20101;-76
2023/12/03 09:08:50;;;;;;;48.83;31.70;;;-0.20;99.90;;;-2.60;100.00;101361.69;4989004;28;20070;-76
2023/12/03 09:11:17;;;;;;;;;;;-0.50;99.90;;;-2.80;100.00;101323.00;5005336;28;20049;-76
2023/12/03 09:13:47;;;;;;;48.60;28.15;;;-0.30;1.00;;;-2.60;100.00;101356.53;4989892;28;20016;-76
2023/12/03 09:16:14;;;;;;;47.70;36.20;;;-0.60;1.00;;;-2.64;100.00;101349.47;5004106;28;20145;-76
2023/12/03 09:18:41;;;;;;;57.40;40.03;;;-0.50;1.00;;;-2.52;100.00;101370.63;5004496;28;20117;-76
2023/12/03 09:21:11;;;;;;;39.08;26.60;;;-0.80;1.00;;;-2.66;100.00;101346.81;4988184;28;20062;-76
2023/12/03 09:23:39;;;;;;;34.60;20.55;;;0.90;1.00;;;-2.30;100.00;101381.94;4986971;28;20042;-75
2023/12/03 09:26:07;;;;;;;128.43;84.07;;;0.30;89.60;;;-2.58;100.00;101329.13;4988005;28;20042;-76
2023/12/03 09:28:34;;;;;;;38.72;26.23;;;-1.00;99.90;;;-2.51;100.00;101340.59;4989145;28;20051;-77
2023/12/03 09:31:02;;;;;;;28.75;19.80;;;-0.80;88.90;;;-2.36;100.00;101351.59;4987699;28;20042;-77
2023/12/03 09:33:30;;;;;;;33.10;22.83;;;0.00;99.90;;;-2.28;100.00;101363.13;5004038;28;20664;-77
2023/12/03 09:35:57;;;;;;;31.38;20.92;;;-0.40;1.00;;;-2.31;100.00;101347.53;5003639;28;20117;-77
2023/12/03 09:38:24;;;;;;;47.55;29.23;;;0.40;1.00;;;-2.18;100.00;101359.28;4989884;28;20042;-78
2023/12/03 09:40:55;;;;;;;34.17;21.88;;;-0.20;99.90;;;-2.26;100.00;101340.00;5007011;28;20048;-78
2023/12/03 09:43:26;;;;;;;49.60;37.85;;;-0.20;1.00;;;-2.08;100.00;101365.72;4990527;28;20066;-78
2023/12/03 09:45:56;;;;;;;35.92;23.60;;;0.20;24.20;;;-2.04;100.00;101369.28;5006781;28;20054;-78
2023/12/03 09:48:29;;;;;;;27.83;20.27;;;-0.40;9.10;;;-2.16;100.00;101343.84;4990882;28;20101;-79
2023/12/03 09:50:59;;;;;;;29.00;20.80;;;-0.30;1.00;;;-1.95;100.00;101376.53;4998749;28;20046;-78
2023/12/03 09:53:29;;;;;;;32.47;20.83;;;0.20;99.90;;;-1.93;100.00;101362.91;4991222;28;20674;-78
2023/12/03 09:55:57;;;;;;;28.45;19.33;;;-0.40;1.00;;;-1.97;100.00;101344.66;4990867;28;20116;-78
2023/12/03 09:58:25;;;;;;;30.75;18.98;;;-0.30;99.90;;;-1.99;100.00;101339.44;5006745;28;20045;-79